Time;durP1;ratioP1;P1;durP2;ratioP2;P2;SDS_P1;SDS_P2;PMS_P1;PMS_P2;Temp;Humidity;BMP_temperature;BMP_pressure;BME280_temperature;BME280_humidity;BME280_pressure;Samples;Min_cycle;Max_cycle;Signal;HPM_P1;HPM_P2
2022/06/20 00:02:19;;;;;;;;;;;22.60;58.00;;;;;;20882822;28;19969;-75
2022/06/20 00:12:21;;;;;;;;;;;22.60;57.90;;;;;;20898493;28;19923;-75
2022/06/20 00:22:21;;;;;;;;;;;22.70;58.10;;;;;;20897812;28;19920;-75
2022/06/20 00:32:22;;;;;;;;;;;22.60;58.00;;;;;;20880830;28;20382;-74
2022/06/20 00:42:22;;;;;;;;;;;22.50;58.10;;;;;;20881063;28;19927;-76
2022/06/20 00:52:33;;;;;;;;;;;22.50;58.90;;;;;;20895584;28;19916;-74
2022/06/20 01:03:00;;;;;;;;;;;22.50;58.20;;;;;;20878472;28;19917;-76
2022/06/20 01:13:03;;;;;;;;;;;22.50;58.30;;;;;;20871128;28;19982;-74
2022/06/20 01:23:06;;;;;;;;;;;22.50;58.50;;;;;;20876317;28;19971;-76
2022/06/20 01:33:07;;;;;;;;;;;22.40;58.70;;;;;;20891749;28;19961;-74
2022/06/20 01:43:07;;;;;;;;;;;22.40;58.80;;;;;;20869492;28;19921;-74
2022/06/20 01:53:08;;;;;;;;;;;22.30;58.80;;;;;;20875537;28;19917;-74
2022/06/20 02:03:10;;;;;;;;;;;22.30;58.90;;;;;;20873313;28;20290;-75
2022/06/20 02:13:10;;;;;;;;;;;22.30;59.00;;;;;;20863417;28;20370;-74
2022/06/20 02:23:14;;;;;;;;;;;22.30;59.10;;;;;;20872229;28;19917;-74
2022/06/20 02:33:16;;;;;;;;;;;22.30;59.10;;;;;;20871945;28;19921;-74
2022/06/20 02:43:24;;;;;;;;;;;22.20;59.20;;;;;;20891979;28;19999;-74
2022/06/20 02:53:26;;;;;;;;;;;22.20;59.20;;;;;;20887232;28;19917;-74
2022/06/20 03:03:37;;;;;;;;;;;22.10;59.20;;;;;;20870621;28;20018;-75
2022/06/20 03:13:37;;;;;;;;;;;22.20;59.30;;;;;;20870487;28;19927;-75
2022/06/20 03:23:38;;;;;;;;;;;22.20;59.50;;;;;;20859239;28;19921;-74
2022/06/20 03:33:38;;;;;;;;;;;22.20;59.40;;;;;;20880048;28;20023;-74
2022/06/20 03:43:39;;;;;;;;;;;22.20;59.50;;;;;;20865626;28;20359;-74
2022/06/20 03:53:44;;;;;;;;;;;22.20;59.50;;;;;;20884461;28;20359;-74
2022/06/20 04:04:20;;;;;;;;;;;22.20;59.50;;;;;;20882466;28;19923;-75
2022/06/20 04:14:22;;;;;;;;;;;22.10;59.50;;;;;;20817284;28;19969;-75
2022/06/20 04:24:39;;;;;;;;;;;22.20;59.60;;;;;;20881243;28;20283;-76
2022/06/20 04:34:44;;;;;;;;;;;22.00;59.80;;;;;;20880074;28;20366;-75
2022/06/20 04:45:00;;;;;;;;;;;22.00;59.90;;;;;;20860174;28;19971;-75
2022/06/20 04:55:01;;;;;;;;;;;21.90;60.00;;;;;;20829596;28;19921;-76
2022/06/20 05:05:04;;;;;;;;;;;21.90;60.00;;;;;;20889510;28;19923;-80
2022/06/20 05:15:07;;;;;;;;;;;21.80;59.90;;;;;;20825118;28;19917;-85
2022/06/20 05:25:08;;;;;;;;;;;21.80;60.10;;;;;;20857128;28;19917;-70
2022/06/20 05:35:12;;;;;;;;;;;21.60;60.20;;;;;;20866768;28;19925;-81
2022/06/20 05:45:14;;;;;;;;;;;21.50;60.40;;;;;;20843413;28;20328;-76
2022/06/20 05:55:15;;;;;;;;;;;21.40;60.60;;;;;;20861616;28;20267;-77
2022/06/20 06:05:39;;;;;;;;;;;21.30;60.70;;;;;;20875034;28;19924;-76
2022/06/20 06:15:41;;;;;;;;;;;21.40;60.50;;;;;;20862003;28;19916;-75
2022/06/20 06:25:42;;;;;;;;;;;21.50;60.40;;;;;;20901250;28;19924;-76
2022/06/20 06:35:43;;;;;;;;;;;21.50;60.40;;;;;;20855308;28;19916;-74
2022/06/20 06:45:44;;;;;;;;;;;21.40;60.30;;;;;;20855324;28;20344;-73
2022/06/20 06:55:49;;;;;;;;;;;21.50;60.20;;;;;;20869880;28;19916;-75
2022/06/20 07:05:51;;;;;;;;;;;21.50;60.10;;;;;;20873637;28;19916;-74
2022/06/20 07:15:53;;;;;;;;;;;21.50;60.00;;;;;;20861051;28;20543;-76
2022/06/20 07:25:54;;;;;;;;;;;21.40;60.00;;;;;;20884917;28;19939;-75
2022/06/20 07:35:55;;;;;;;;;;;21.30;60.10;;;;;;21224471;23;20019;-73
2022/06/20 07:45:55;;;;;;;;;;;21.30;60.30;;;;;;20890242;28;19913;-72
2022/06/20 07:55:57;;;;;;;;;;;21.30;60.40;;;;;;20900156;28;20294;-77
2022/06/20 08:05:58;;;;;;;;;;;21.30;60.30;;;;;;20901678;28;19920;-73
2022/06/20 08:16:02;;;;;;;;;;;21.30;60.30;;;;;;20895263;28;19927;-73
2022/06/20 08:26:04;;;;;;;;;;;21.30;60.30;;;;;;20896938;28;19912;-73
2022/06/20 08:36:15;;;;;;;;;;;21.30;60.20;;;;;;20895477;28;19975;-72
2022/06/20 08:46:20;;;;;;;;;;;21.30;60.10;;;;;;20879039;28;19916;-73
2022/06/20 08:56:20;;;;;;;;;;;21.30;60.10;;;;;;20899893;28;19921;-73
2022/06/20 09:06:24;;;;;;;;;;;21.30;60.10;;;;;;20909653;28;20382;-73
2022/06/20 09:16:31;;;;;;;;;;;21.20;60.20;;;;;;20896617;28;20426;-73
2022/06/20 09:26:33;;;;;;;;;;;21.20;60.20;;;;;;20909652;28;19913;-83
2022/06/20 09:36:52;;;;;;;;;;;21.10;60.30;;;;;;20897259;28;19921;-79
2022/06/20 09:46:53;;;;;;;;;;;21.10;60.50;;;;;;20867588;28;20007;-74
2022/06/20 09:57:02;;;;;;;;;;;21.10;60.70;;;;;;20903054;28;20018;-75
2022/06/20 10:07:12;;;;;;;;;;;21.10;60.80;;;;;;20873295;28;19912;-73
2022/06/20 10:17:31;;;;;;;;;;;21.20;60.90;;;;;;20903647;28;19932;-76
2022/06/20 10:27:34;;;;;;;;;;;21.10;60.80;;;;;;20901847;28;20007;-77
2022/06/20 10:37:37;;;;;;;;;;;21.20;60.70;;;;;;20897490;28;19928;-78
2022/06/20 10:47:42;;;;;;;;;;;21.20;60.60;;;;;;20899788;28;20349;-78
2022/06/20 10:57:43;;;;;;;;;;;21.20;60.60;;;;;;20891856;28;19928;-77
2022/06/20 11:07:50;;;;;;;;;;;21.30;60.50;;;;;;20918337;28;19913;-77
2022/06/20 11:18:02;;;;;;;;;;;21.30;60.30;;;;;;20898734;28;20051;-76
2022/06/20 11:28:22;;;;;;;;;;;21.30;60.10;;;;;;20902219;28;19913;-74
2022/06/20 11:38:29;;;;;;;;;;;21.30;60.00;;;;;;20902354;28;19994;-76
2022/06/20 11:48:34;;;;;;;;;;;21.30;59.80;;;;;;20888594;28;19913;-85
2022/06/20 11:58:50;;;;;;;;;;;21.40;59.70;;;;;;20902518;28;20031;-78
2022/06/20 12:08:53;;;;;;;;;;;21.40;59.40;;;;;;20912480;28;19912;-86
2022/06/20 12:29:36;;;;;;;;;;;21.40;58.40;;;;;;20888517;28;19912;-78
2022/06/20 12:39:43;;;;;;;;;;;21.50;58.00;;;;;;20909584;28;20182;-77
2022/06/20 12:50:02;;;;;;;;;;;21.50;57.50;;;;;;20910087;28;20292;-76
2022/06/20 13:00:32;;;;;;;;;;;21.50;57.10;;;;;;20912307;28;19924;-76
2022/06/20 13:10:34;;;;;;;;;;;21.50;56.50;;;;;;20851663;28;19919;-76
2022/06/20 13:20:35;;;;;;;;;;;21.50;55.70;;;;;;20908438;28;19991;-76
2022/06/20 13:30:45;;;;;;;;;;;21.50;55.10;;;;;;20907823;28;19912;-75
2022/06/20 13:40:49;;;;;;;;;;;21.60;54.70;;;;;;20902675;28;19921;-76
2022/06/20 13:50:55;;;;;;;;;;;21.50;54.40;;;;;;20902763;28;20320;-77
2022/06/20 14:01:02;;;;;;;;;;;21.60;54.10;;;;;;20898186;28;19924;-77
2022/06/20 14:11:03;;;;;;;;;;;21.60;53.90;;;;;;20899388;28;19986;-76
2022/06/20 14:21:05;;;;;;;;;;;21.60;53.60;;;;;;20864855;28;20360;-76
2022/06/20 14:31:13;;;;;;;;;;;21.70;53.40;;;;;;20897833;28;19967;-76
2022/06/20 14:51:41;;;;;;;;;;;21.70;52.80;;;;;;20902002;28;19921;-76
2022/06/20 15:01:45;;;;;;;;;;;21.70;52.50;;;;;;20902733;28;19928;-78
2022/06/20 15:12:04;;;;;;;;;;;21.70;52.20;;;;;;20903987;28;19947;-76
2022/06/20 15:22:19;;;;;;;;;;;21.60;52.00;;;;;;20922387;28;19932;-78
2022/06/20 15:32:31;;;;;;;;;;;21.60;51.90;;;;;;20920309;28;19917;-75
2022/06/20 15:42:39;;;;;;;;;;;21.60;51.90;;;;;;20925775;28;20510;-79
2022/06/20 15:52:52;;;;;;;;;;;21.60;51.90;;;;;;20916428;28;19996;-79
2022/06/20 16:03:11;;;;;;;;;;;21.60;51.80;;;;;;20929810;28;19968;-73
2022/06/20 16:13:31;;;;;;;;;;;21.60;51.60;;;;;;20920635;28;19956;-79
2022/06/20 16:23:43;;;;;;;;;;;21.70;51.20;;;;;;20897963;28;19931;-74
2022/06/20 16:33:45;;;;;;;;;;;21.70;50.70;;;;;;20913314;28;19962;-77
2022/06/20 16:44:00;;;;;;;;;;;21.70;50.90;;;;;;20911176;28;20271;-76
2022/06/20 16:54:17;;;;;;;;;;;21.70;50.90;;;;;;20895305;28;19963;-77
2022/06/20 17:04:17;;;;;;;;;;;21.70;50.10;;;;;;20895332;28;19925;-77
2022/06/20 17:14:21;;;;;;;;;;;21.80;49.70;;;;;;20907986;28;19970;-78
2022/06/20 17:24:21;;;;;;;;;;;21.90;49.40;;;;;;20906684;28;19920;-78
2022/06/20 17:34:25;;;;;;;;;;;21.90;49.10;;;;;;20926346;28;20007;-78
2022/06/20 17:44:31;;;;;;;;;;;21.90;49.00;;;;;;20909083;28;19925;-78
2022/06/20 17:54:38;;;;;;;;;;;21.90;48.70;;;;;;20890061;28;19924;-74
2022/06/20 18:04:40;;;;;;;;;;;21.90;48.50;;;;;;20903047;28;19931;-75
2022/06/20 18:14:43;;;;;;;;;;;22.00;48.50;;;;;;20903364;28;19956;-75
2022/06/20 18:24:46;;;;;;;;;;;22.00;48.40;;;;;;20901962;28;20306;-74
2022/06/20 18:34:48;;;;;;;;;;;21.90;48.70;;;;;;20881769;28;19920;-75
2022/06/20 18:44:48;;;;;;;;;;;21.80;49.20;;;;;;20896015;28;19924;-74
2022/06/20 18:54:54;;;;;;;;;;;21.80;49.60;;;;;;20884311;28;19924;-76
2022/06/20 19:05:13;;;;;;;;;;;21.70;49.70;;;;;;20914238;28;19921;-76
2022/06/20 19:15:16;;;;;;;;;;;21.70;49.70;;;;;;20935348;28;19913;-75
2022/06/20 19:25:18;;;;;;;;;;;21.60;49.60;;;;;;20923577;28;19917;-74
2022/06/20 19:35:36;;;;;;;;;;;21.60;49.60;;;;;;20916568;28;19921;-74
2022/06/20 19:45:40;;;;;;;;;;;21.50;49.60;;;;;;20898941;28;19917;-74
2022/06/20 19:55:45;;;;;;;;;;;21.50;49.70;;;;;;20916718;28;20374;-74
2022/06/20 20:05:51;;;;;;;;;;;21.40;49.80;;;;;;20900218;28;19913;-74
2022/06/20 20:16:04;;;;;;;;;;;21.40;50.00;;;;;;20915652;28;20276;-75
2022/06/20 20:26:18;;;;;;;;;;;21.40;50.10;;;;;;20914730;28;20367;-73
2022/06/20 20:36:21;;;;;;;;;;;21.40;50.30;;;;;;20913708;28;20377;-75
2022/06/20 20:46:41;;;;;;;;;;;21.30;50.40;;;;;;20913003;28;20375;-74
2022/06/20 20:56:45;;;;;;;;;;;21.30;50.70;;;;;;20912241;28;19928;-74
2022/06/20 21:06:46;;;;;;;;;;;21.20;50.70;;;;;;20894944;28;19967;-74
2022/06/20 21:16:49;;;;;;;;;;;21.20;50.90;;;;;;20910756;28;20383;-74
2022/06/20 21:26:50;;;;;;;;;;;21.10;50.90;;;;;;20892605;28;19912;-73
2022/06/20 21:36:51;;;;;;;;;;;21.10;51.10;;;;;;20892943;28;20264;-73
2022/06/20 21:46:52;;;;;;;;;;;21.10;51.20;;;;;;20892337;28;19916;-74
2022/06/20 21:56:54;;;;;;;;;;;21.00;51.20;;;;;;20907244;28;20009;-74
2022/06/20 22:06:55;;;;;;;;;;;21.00;51.30;;;;;;20890653;28;19920;-74
2022/06/20 22:16:56;;;;;;;;;;;20.90;51.40;;;;;;20889568;28;20370;-74
2022/06/20 22:27:07;;;;;;;;;;;20.90;51.60;;;;;;20888989;28;19970;-74
2022/06/20 22:37:09;;;;;;;;;;;20.80;51.60;;;;;;20907549;28;19927;-74
2022/06/20 22:47:10;;;;;;;;;;;20.70;51.60;;;;;;20888296;28;20361;-75
2022/06/20 22:57:12;;;;;;;;;;;20.70;51.70;;;;;;20888015;28;20370;-74
2022/06/20 23:07:13;;;;;;;;;;;20.70;51.80;;;;;;20904456;28;19958;-75
2022/06/20 23:27:32;;;;;;;;;;;20.70;52.00;;;;;;20903073;28;19963;-74
2022/06/20 23:37:35;;;;;;;;;;;20.60;52.10;;;;;;20902542;28;21569;-74
2022/06/20 23:47:36;;;;;;;;;;;20.60;52.10;;;;;;20900866;28;19959;-75
2022/06/20 23:57:36;;;;;;;;;;;20.60;52.20;;;;;;20917011;28;19984;-74
